Disclaimer

Please do not use the information listed here in-flight or in-navigation, as they are not provided to us by the airports but are provided by volunteers, so they might be outdated.

Search


Regions


Airport information page

No radio frequency information is available.

Airport informations:
Latitude: 52° 19' 09.00" N
Longitude: 010° 33' 22.00" E
Elevation: 295 feet - 90 meters
Operating hours: Remarks
Operating agency: Civil government, landing fees and diplomatic clearance may be required
Timezone: UTC+1(+2DT) - Last Sunday in March to last Sunday in October
Fuel: Jet A1, without icing nhibitor.

100/130 MIL Spec, low lead, aviation gasoline (BLUE)

Runway information:
08/26 - 5512 x 98 feet< - >1680 x 30 meters
08R/26L - 2953 x 98 feet< - >900 x 30 meters

Recent METARs:
EDVE 201350Z 09015KT 9999 OVC018 03/M02 Q1013
EDVE 201420Z 09013KT 050V110 9999 OVC017 02/M02 Q1013
EDVE 201450Z 09012KT 9999 OVC017 02/M02 Q1013

Airport on the map: